sensor_id;sensor_type;location;lat;lon;timestamp;P1;durP1;ratioP1;P2;durP2;ratioP2
22673;SDS011;11504;43.334;21.918;2022-11-15T00:03:17;25.0;;;24.0;;
22673;SDS011;11504;43.334;21.918;2022-11-15T00:08:03;21.0;;;20.0;;
22673;SDS011;11504;43.334;21.918;2022-11-15T00:12:40;21.0;;;20.0;;
22673;SDS011;11504;43.334;21.918;2022-11-15T00:17:16;21.0;;;20.0;;
22673;SDS011;11504;43.334;21.918;2022-11-15T00:21:53;20.0;;;20.0;;
22673;SDS011;11504;43.334;21.918;2022-11-15T00:26:30;20.0;;;20.0;;
22673;SDS011;11504;43.334;21.918;2022-11-15T00:31:08;20.0;;;19.0;;
22673;SDS011;11504;43.334;21.918;2022-11-15T00:35:51;20.0;;;19.0;;
22673;SDS011;11504;43.334;21.918;2022-11-15T00:40:27;28.0;;;26.0;;
22673;SDS011;11504;43.334;21.918;2022-11-15T00:45:06;28.0;;;26.0;;
22673;SDS011;11504;43.334;21.918;2022-11-15T00:49:45;35.0;;;34.0;;
22673;SDS011;11504;43.334;21.918;2022-11-15T00:54:22;35.0;;;34.0;;
22673;SDS011;11504;43.334;21.918;2022-11-15T00:58:58;34.0;;;34.0;;
22673;SDS011;11504;43.334;21.918;2022-11-15T01:03:36;34.0;;;34.0;;
22673;SDS011;11504;43.334;21.918;2022-11-15T01:08:17;34.0;;;33.0;;
22673;SDS011;11504;43.334;21.918;2022-11-15T01:12:54;34.0;;;33.0;;
22673;SDS011;11504;43.334;21.918;2022-11-15T01:17:30;36.0;;;34.0;;
22673;SDS011;11504;43.334;21.918;2022-11-15T01:22:07;36.0;;;34.0;;
22673;SDS011;11504;43.334;21.918;2022-11-15T01:26:44;36.0;;;34.0;;
22673;SDS011;11504;43.334;21.918;2022-11-15T01:31:21;37.0;;;35.0;;
22673;SDS011;11504;43.334;21.918;2022-11-15T01:35:58;37.0;;;35.0;;
22673;SDS011;11504;43.334;21.918;2022-11-15T01:40:43;32.0;;;30.0;;
22673;SDS011;11504;43.334;21.918;2022-11-15T01:45:20;32.0;;;30.0;;
22673;SDS011;11504;43.334;21.918;2022-11-15T01:50:00;27.0;;;26.0;;
22673;SDS011;11504;43.334;21.918;2022-11-15T01:54:47;27.0;;;26.0;;
22673;SDS011;11504;43.334;21.918;2022-11-15T01:59:41;28.0;;;26.0;;
22673;SDS011;11504;43.334;21.918;2022-11-15T02:04:24;28.0;;;26.0;;
22673;SDS011;11504;43.334;21.918;2022-11-15T02:09:17;28.0;;;27.0;;
22673;SDS011;11504;43.334;21.918;2022-11-15T02:13:55;28.0;;;27.0;;
22673;SDS011;11504;43.334;21.918;2022-11-15T02:18:45;28.0;;;26.0;;
22673;SDS011;11504;43.334;21.918;2022-11-15T02:24:35;28.0;;;26.0;;
22673;SDS011;11504;43.334;21.918;2022-11-15T02:30:25;28.0;;;26.0;;
22673;SDS011;11504;43.334;21.918;2022-11-15T02:35:29;28.0;;;26.0;;
22673;SDS011;11504;43.334;21.918;2022-11-15T02:40:38;28.0;;;26.0;;
22673;SDS011;11504;43.334;21.918;2022-11-15T02:45:39;28.0;;;26.0;;
22673;SDS011;11504;43.334;21.918;2022-11-15T02:50:37;28.0;;;26.0;;
22673;SDS011;11504;43.334;21.918;2022-11-15T02:55:31;28.0;;;26.0;;
22673;SDS011;11504;43.334;21.918;2022-11-15T03:00:21;28.0;;;27.0;;
22673;SDS011;11504;43.334;21.918;2022-11-15T03:04:58;28.0;;;27.0;;
22673;SDS011;11504;43.334;21.918;2022-11-15T03:10:10;29.0;;;28.0;;
22673;SDS011;11504;43.334;21.918;2022-11-15T03:15:21;29.0;;;28.0;;
22673;SDS011;11504;43.334;21.918;2022-11-15T03:20:13;32.0;;;30.0;;
22673;SDS011;11504;43.334;21.918;2022-11-15T03:24:56;32.0;;;30.0;;
22673;SDS011;11504;43.334;21.918;2022-11-15T03:29:53;35.0;;;33.0;;
22673;SDS011;11504;43.334;21.918;2022-11-15T03:34:46;35.0;;;33.0;;
22673;SDS011;11504;43.334;21.918;2022-11-15T03:39:46;30.0;;;28.0;;
22673;SDS011;11504;43.334;21.918;2022-11-15T03:44:27;30.0;;;28.0;;
22673;SDS011;11504;43.334;21.918;2022-11-15T03:49:44;25.0;;;24.0;;
22673;SDS011;11504;43.334;21.918;2022-11-15T03:54:47;25.0;;;24.0;;
22673;SDS011;11504;43.334;21.918;2022-11-15T03:59:32;22.0;;;21.0;;
22673;SDS011;11504;43.334;21.918;2022-11-15T04:04:08;22.0;;;21.0;;
22673;SDS011;11504;43.334;21.918;2022-11-15T04:08:45;19.0;;;18.0;;
22673;SDS011;11504;43.334;21.918;2022-11-15T04:13:22;19.0;;;18.0;;
22673;SDS011;11504;43.334;21.918;2022-11-15T04:17:58;22.0;;;21.0;;
22673;SDS011;11504;43.334;21.918;2022-11-15T04:22:35;22.0;;;21.0;;
22673;SDS011;11504;43.334;21.918;2022-11-15T04:27:12;22.0;;;21.0;;
22673;SDS011;11504;43.334;21.918;2022-11-15T04:31:48;26.0;;;24.0;;
22673;SDS011;11504;43.334;21.918;2022-11-15T04:36:25;26.0;;;24.0;;
22673;SDS011;11504;43.334;21.918;2022-11-15T04:41:01;28.0;;;26.0;;
22673;SDS011;11504;43.334;21.918;2022-11-15T04:45:39;28.0;;;26.0;;
22673;SDS011;11504;43.334;21.918;2022-11-15T04:50:16;29.0;;;27.0;;
22673;SDS011;11504;43.334;21.918;2022-11-15T04:54:53;29.0;;;27.0;;
22673;SDS011;11504;43.334;21.918;2022-11-15T04:59:30;26.0;;;24.0;;
22673;SDS011;11504;43.334;21.918;2022-11-15T05:04:06;26.0;;;24.0;;
22673;SDS011;11504;43.334;21.918;2022-11-15T05:08:43;24.0;;;22.0;;
22673;SDS011;11504;43.334;21.918;2022-11-15T05:13:20;24.0;;;22.0;;
22673;SDS011;11504;43.334;21.918;2022-11-15T05:17:58;26.0;;;24.0;;
22673;SDS011;11504;43.334;21.918;2022-11-15T05:22:35;26.0;;;24.0;;
22673;SDS011;11504;43.334;21.918;2022-11-15T05:27:12;26.0;;;24.0;;
22673;SDS011;11504;43.334;21.918;2022-11-15T05:31:49;27.0;;;26.0;;
22673;SDS011;11504;43.334;21.918;2022-11-15T05:36:27;27.0;;;26.0;;
22673;SDS011;11504;43.334;21.918;2022-11-15T05:41:18;26.0;;;26.0;;
22673;SDS011;11504;43.334;21.918;2022-11-15T05:46:12;26.0;;;26.0;;
22673;SDS011;11504;43.334;21.918;2022-11-15T05:50:50;26.0;;;25.0;;
22673;SDS011;11504;43.334;21.918;2022-11-15T05:55:29;26.0;;;25.0;;
22673;SDS011;11504;43.334;21.918;2022-11-15T06:00:07;32.0;;;30.0;;
22673;SDS011;11504;43.334;21.918;2022-11-15T06:04:47;32.0;;;30.0;;
22673;SDS011;11504;43.334;21.918;2022-11-15T06:09:23;38.0;;;36.0;;
22673;SDS011;11504;43.334;21.918;2022-11-15T06:14:00;38.0;;;36.0;;
22673;SDS011;11504;43.334;21.918;2022-11-15T06:18:37;38.0;;;36.0;;
22673;SDS011;11504;43.334;21.918;2022-11-15T06:23:14;38.0;;;36.0;;
22673;SDS011;11504;43.334;21.918;2022-11-15T06:27:51;38.0;;;36.0;;
22673;SDS011;11504;43.334;21.918;2022-11-15T06:32:33;38.0;;;36.0;;
22673;SDS011;11504;43.334;21.918;2022-11-15T06:37:10;38.0;;;36.0;;
22673;SDS011;11504;43.334;21.918;2022-11-15T06:41:47;38.0;;;36.0;;
22673;SDS011;11504;43.334;21.918;2022-11-15T06:46:23;38.0;;;36.0;;
22673;SDS011;11504;43.334;21.918;2022-11-15T06:51:00;39.0;;;37.0;;
22673;SDS011;11504;43.334;21.918;2022-11-15T06:55:40;39.0;;;37.0;;
22673;SDS011;11504;43.334;21.918;2022-11-15T07:00:18;40.0;;;38.0;;
22673;SDS011;11504;43.334;21.918;2022-11-15T07:04:58;40.0;;;38.0;;
22673;SDS011;11504;43.334;21.918;2022-11-15T07:09:34;40.0;;;38.0;;
22673;SDS011;11504;43.334;21.918;2022-11-15T07:14:10;40.0;;;38.0;;
22673;SDS011;11504;43.334;21.918;2022-11-15T07:18:47;43.0;;;41.0;;
22673;SDS011;11504;43.334;21.918;2022-11-15T07:23:24;43.0;;;41.0;;
22673;SDS011;11504;43.334;21.918;2022-11-15T07:28:01;46.0;;;44.0;;
22673;SDS011;11504;43.334;21.918;2022-11-15T07:32:40;46.0;;;44.0;;
22673;SDS011;11504;43.334;21.918;2022-11-15T07:37:16;46.0;;;44.0;;
22673;SDS011;11504;43.334;21.918;2022-11-15T07:41:54;48.0;;;45.0;;
22673;SDS011;11504;43.334;21.918;2022-11-15T07:46:31;48.0;;;45.0;;
22673;SDS011;11504;43.334;21.918;2022-11-15T07:51:09;49.0;;;46.0;;
22673;SDS011;11504;43.334;21.918;2022-11-15T07:55:51;49.0;;;46.0;;
22673;SDS011;11504;43.334;21.918;2022-11-15T08:00:28;48.0;;;46.0;;
22673;SDS011;11504;43.334;21.918;2022-11-15T08:05:06;48.0;;;46.0;;
22673;SDS011;11504;43.334;21.918;2022-11-15T08:09:44;48.0;;;45.0;;
22673;SDS011;11504;43.334;21.918;2022-11-15T08:14:20;48.0;;;45.0;;
22673;SDS011;11504;43.334;21.918;2022-11-15T08:18:57;53.0;;;50.0;;
22673;SDS011;11504;43.334;21.918;2022-11-15T08:23:34;53.0;;;50.0;;
22673;SDS011;11504;43.334;21.918;2022-11-15T08:28:10;58.0;;;56.0;;
22673;SDS011;11504;43.334;21.918;2022-11-15T08:32:47;58.0;;;56.0;;
22673;SDS011;11504;43.334;21.918;2022-11-15T08:37:32;58.0;;;56.0;;
22673;SDS011;11504;43.334;21.918;2022-11-15T08:42:08;52.0;;;50.0;;
22673;SDS011;11504;43.334;21.918;2022-11-15T08:46:46;52.0;;;50.0;;
22673;SDS011;11504;43.334;21.918;2022-11-15T08:51:23;46.0;;;44.0;;
22673;SDS011;11504;43.334;21.918;2022-11-15T08:56:00;46.0;;;44.0;;
22673;SDS011;11504;43.334;21.918;2022-11-15T09:00:45;44.0;;;42.0;;
22673;SDS011;11504;43.334;21.918;2022-11-15T09:05:23;44.0;;;42.0;;
22673;SDS011;11504;43.334;21.918;2022-11-15T09:10:01;43.0;;;41.0;;
22673;SDS011;11504;43.334;21.918;2022-11-15T09:14:40;43.0;;;41.0;;
22673;SDS011;11504;43.334;21.918;2022-11-15T09:19:17;42.0;;;40.0;;
22673;SDS011;11504;43.334;21.918;2022-11-15T09:23:54;42.0;;;40.0;;
22673;SDS011;11504;43.334;21.918;2022-11-15T09:28:32;40.0;;;39.0;;
22673;SDS011;11504;43.334;21.918;2022-11-15T09:33:11;40.0;;;39.0;;
22673;SDS011;11504;43.334;21.918;2022-11-15T09:37:49;40.0;;;39.0;;
22673;SDS011;11504;43.334;21.918;2022-11-15T09:42:29;42.0;;;40.0;;
22673;SDS011;11504;43.334;21.918;2022-11-15T09:48:39;44.0;;;42.0;;
22673;SDS011;11504;43.334;21.918;2022-11-15T09:53:35;44.0;;;42.0;;
22673;SDS011;11504;43.334;21.918;2022-11-15T09:58:39;43.0;;;41.0;;
22673;SDS011;11504;43.334;21.918;2022-11-15T10:04:00;43.0;;;41.0;;
22673;SDS011;11504;43.334;21.918;2022-11-15T10:08:43;42.0;;;40.0;;
22673;SDS011;11504;43.334;21.918;2022-11-15T10:13:55;42.0;;;40.0;;
22673;SDS011;11504;43.334;21.918;2022-11-15T10:18:57;42.0;;;39.0;;
22673;SDS011;11504;43.334;21.918;2022-11-15T10:24:18;42.0;;;39.0;;
22673;SDS011;11504;43.334;21.918;2022-11-15T10:29:18;42.0;;;38.0;;
22673;SDS011;11504;43.334;21.918;2022-11-15T10:34:05;42.0;;;38.0;;
22673;SDS011;11504;43.334;21.918;2022-11-15T10:38:57;38.0;;;36.0;;
22673;SDS011;11504;43.334;21.918;2022-11-15T10:43:34;38.0;;;36.0;;
22673;SDS011;11504;43.334;21.918;2022-11-15T10:48:20;35.0;;;34.0;;
22673;SDS011;11504;43.334;21.918;2022-11-15T10:53:01;35.0;;;34.0;;
22673;SDS011;11504;43.334;21.918;2022-11-15T10:57:48;35.0;;;34.0;;
22673;SDS011;11504;43.334;21.918;2022-11-15T11:02:56;32.0;;;32.0;;
22673;SDS011;11504;43.334;21.918;2022-11-15T11:07:58;30.0;;;29.0;;
22673;SDS011;11504;43.334;21.918;2022-11-15T11:13:12;30.0;;;29.0;;
22673;SDS011;11504;43.334;21.918;2022-11-15T11:18:05;35.0;;;34.0;;
22673;SDS011;11504;43.334;21.918;2022-11-15T11:23:17;35.0;;;34.0;;
22673;SDS011;11504;43.334;21.918;2022-11-15T11:28:42;40.0;;;38.0;;
22673;SDS011;11504;43.334;21.918;2022-11-15T11:34:20;40.0;;;38.0;;
22673;SDS011;11504;43.334;21.918;2022-11-15T11:39:53;45.0;;;43.0;;
22673;SDS011;11504;43.334;21.918;2022-11-15T11:45:18;45.0;;;43.0;;
22673;SDS011;11504;43.334;21.918;2022-11-15T11:51:15;50.0;;;48.0;;
22673;SDS011;11504;43.334;21.918;2022-11-15T11:56:27;50.0;;;48.0;;
22673;SDS011;11504;43.334;21.918;2022-11-15T12:01:20;46.0;;;44.0;;
22673;SDS011;11504;43.334;21.918;2022-11-15T12:06:21;46.0;;;44.0;;
22673;SDS011;11504;43.334;21.918;2022-11-15T12:11:23;42.0;;;40.0;;
22673;SDS011;11504;43.334;21.918;2022-11-15T12:16:34;42.0;;;40.0;;
22673;SDS011;11504;43.334;21.918;2022-11-15T12:21:19;41.0;;;39.0;;
22673;SDS011;11504;43.334;21.918;2022-11-15T12:26:24;41.0;;;39.0;;
22673;SDS011;11504;43.334;21.918;2022-11-15T12:31:22;40.0;;;38.0;;
22673;SDS011;11504;43.334;21.918;2022-11-15T12:36:30;40.0;;;38.0;;
22673;SDS011;11504;43.334;21.918;2022-11-15T12:41:19;41.0;;;39.0;;
22673;SDS011;11504;43.334;21.918;2022-11-15T12:46:04;41.0;;;39.0;;
22673;SDS011;11504;43.334;21.918;2022-11-15T12:52:07;42.0;;;40.0;;
22673;SDS011;11504;43.334;21.918;2022-11-15T12:56:47;42.0;;;40.0;;
22673;SDS011;11504;43.334;21.918;2022-11-15T13:02:19;42.0;;;40.0;;
22673;SDS011;11504;43.334;21.918;2022-11-15T13:07:08;42.0;;;40.0;;
22673;SDS011;11504;43.334;21.918;2022-11-15T13:12:51;43.0;;;41.0;;
22673;SDS011;11504;43.334;21.918;2022-11-15T13:17:38;43.0;;;41.0;;
22673;SDS011;11504;43.334;21.918;2022-11-15T13:22:24;42.0;;;40.0;;
22673;SDS011;11504;43.334;21.918;2022-11-15T13:27:02;42.0;;;40.0;;
22673;SDS011;11504;43.334;21.918;2022-11-15T13:31:56;41.0;;;39.0;;
22673;SDS011;11504;43.334;21.918;2022-11-15T13:36:32;41.0;;;39.0;;
22673;SDS011;11504;43.334;21.918;2022-11-15T13:41:11;44.0;;;42.0;;
22673;SDS011;11504;43.334;21.918;2022-11-15T13:46:06;44.0;;;42.0;;
22673;SDS011;11504;43.334;21.918;2022-11-15T13:50:54;47.0;;;45.0;;
22673;SDS011;11504;43.334;21.918;2022-11-15T13:55:34;47.0;;;45.0;;
22673;SDS011;11504;43.334;21.918;2022-11-15T14:00:29;52.0;;;50.0;;
22673;SDS011;11504;43.334;21.918;2022-11-15T14:05:21;52.0;;;50.0;;
22673;SDS011;11504;43.334;21.918;2022-11-15T14:10:16;57.0;;;54.0;;
22673;SDS011;11504;43.334;21.918;2022-11-15T14:15:18;57.0;;;54.0;;
22673;SDS011;11504;43.334;21.918;2022-11-15T14:20:26;64.0;;;62.0;;
22673;SDS011;11504;43.334;21.918;2022-11-15T14:25:15;64.0;;;62.0;;
22673;SDS011;11504;43.334;21.918;2022-11-15T14:30:02;72.0;;;69.0;;
22673;SDS011;11504;43.334;21.918;2022-11-15T14:34:53;72.0;;;69.0;;
22673;SDS011;11504;43.334;21.918;2022-11-15T14:39:38;75.0;;;72.0;;
22673;SDS011;11504;43.334;21.918;2022-11-15T14:44:15;75.0;;;72.0;;
22673;SDS011;11504;43.334;21.918;2022-11-15T14:48:52;78.0;;;74.0;;
22673;SDS011;11504;43.334;21.918;2022-11-15T14:53:29;78.0;;;74.0;;
22673;SDS011;11504;43.334;21.918;2022-11-15T14:58:06;78.0;;;74.0;;
22673;SDS011;11504;43.334;21.918;2022-11-15T15:02:45;80.0;;;76.0;;
22673;SDS011;11504;43.334;21.918;2022-11-15T15:07:29;80.0;;;76.0;;
22673;SDS011;11504;43.334;21.918;2022-11-15T15:12:09;82.0;;;78.0;;
22673;SDS011;11504;43.334;21.918;2022-11-15T15:16:56;82.0;;;78.0;;
22673;SDS011;11504;43.334;21.918;2022-11-15T15:21:32;94.0;;;90.0;;
22673;SDS011;11504;43.334;21.918;2022-11-15T15:26:10;94.0;;;90.0;;
22673;SDS011;11504;43.334;21.918;2022-11-15T15:30:47;107.0;;;102.0;;
22673;SDS011;11504;43.334;21.918;2022-11-15T15:35:26;107.0;;;102.0;;
22673;SDS011;11504;43.334;21.918;2022-11-15T15:40:13;106.0;;;100.0;;
22673;SDS011;11504;43.334;21.918;2022-11-15T15:45:00;106.0;;;100.0;;
22673;SDS011;11504;43.334;21.918;2022-11-15T15:49:39;104.0;;;99.0;;
22673;SDS011;11504;43.334;21.918;2022-11-15T15:54:16;104.0;;;99.0;;
22673;SDS011;11504;43.334;21.918;2022-11-15T15:58:53;138.0;;;132.0;;
22673;SDS011;11504;43.334;21.918;2022-11-15T16:03:30;138.0;;;132.0;;
22673;SDS011;11504;43.334;21.918;2022-11-15T16:08:08;138.0;;;132.0;;
22673;SDS011;11504;43.334;21.918;2022-11-15T16:12:59;173.0;;;165.0;;
22673;SDS011;11504;43.334;21.918;2022-11-15T16:17:38;173.0;;;165.0;;
22673;SDS011;11504;43.334;21.918;2022-11-15T16:22:28;164.0;;;155.0;;
22673;SDS011;11504;43.334;21.918;2022-11-15T16:27:04;164.0;;;155.0;;
22673;SDS011;11504;43.334;21.918;2022-11-15T16:31:49;156.0;;;145.0;;
22673;SDS011;11504;43.334;21.918;2022-11-15T16:36:26;156.0;;;145.0;;
22673;SDS011;11504;43.334;21.918;2022-11-15T16:41:08;148.0;;;134.0;;
22673;SDS011;11504;43.334;21.918;2022-11-15T16:45:45;148.0;;;134.0;;
22673;SDS011;11504;43.334;21.918;2022-11-15T16:50:26;139.0;;;124.0;;
22673;SDS011;11504;43.334;21.918;2022-11-15T16:55:10;139.0;;;124.0;;
22673;SDS011;11504;43.334;21.918;2022-11-15T16:59:47;154.0;;;142.0;;
22673;SDS011;11504;43.334;21.918;2022-11-15T17:04:24;154.0;;;142.0;;
22673;SDS011;11504;43.334;21.918;2022-11-15T17:09:00;169.0;;;161.0;;
22673;SDS011;11504;43.334;21.918;2022-11-15T17:13:37;169.0;;;161.0;;
22673;SDS011;11504;43.334;21.918;2022-11-15T17:18:14;169.0;;;161.0;;
22673;SDS011;11504;43.334;21.918;2022-11-15T17:22:51;162.0;;;153.0;;
22673;SDS011;11504;43.334;21.918;2022-11-15T17:27:27;162.0;;;153.0;;
22673;SDS011;11504;43.334;21.918;2022-11-15T17:32:06;155.0;;;145.0;;
22673;SDS011;11504;43.334;21.918;2022-11-15T17:36:44;155.0;;;145.0;;
22673;SDS011;11504;43.334;21.918;2022-11-15T17:41:20;124.0;;;117.0;;
22673;SDS011;11504;43.334;21.918;2022-11-15T17:45:57;124.0;;;117.0;;
22673;SDS011;11504;43.334;21.918;2022-11-15T17:50:42;94.0;;;89.0;;
22673;SDS011;11504;43.334;21.918;2022-11-15T17:55:18;94.0;;;89.0;;
22673;SDS011;11504;43.334;21.918;2022-11-15T17:59:55;78.0;;;73.0;;
22673;SDS011;11504;43.334;21.918;2022-11-15T18:04:31;78.0;;;73.0;;
22673;SDS011;11504;43.334;21.918;2022-11-15T18:09:08;61.0;;;57.0;;
22673;SDS011;11504;43.334;21.918;2022-11-15T18:13:45;61.0;;;57.0;;
22673;SDS011;11504;43.334;21.918;2022-11-15T18:18:34;80.0;;;75.0;;
22673;SDS011;11504;43.334;21.918;2022-11-15T18:23:11;80.0;;;75.0;;
22673;SDS011;11504;43.334;21.918;2022-11-15T18:27:50;80.0;;;75.0;;
22673;SDS011;11504;43.334;21.918;2022-11-15T18:32:27;100.0;;;93.0;;
22673;SDS011;11504;43.334;21.918;2022-11-15T18:37:04;100.0;;;93.0;;
22673;SDS011;11504;43.334;21.918;2022-11-15T18:41:42;94.0;;;88.0;;
22673;SDS011;11504;43.334;21.918;2022-11-15T18:46:22;94.0;;;88.0;;
22673;SDS011;11504;43.334;21.918;2022-11-15T18:51:07;87.0;;;83.0;;
22673;SDS011;11504;43.334;21.918;2022-11-15T18:55:52;87.0;;;83.0;;
22673;SDS011;11504;43.334;21.918;2022-11-15T19:00:29;86.0;;;82.0;;
22673;SDS011;11504;43.334;21.918;2022-11-15T19:05:05;86.0;;;82.0;;
22673;SDS011;11504;43.334;21.918;2022-11-15T19:09:43;84.0;;;80.0;;
22673;SDS011;11504;43.334;21.918;2022-11-15T19:14:20;84.0;;;80.0;;
22673;SDS011;11504;43.334;21.918;2022-11-15T19:18:57;92.0;;;88.0;;
22673;SDS011;11504;43.334;21.918;2022-11-15T19:23:44;92.0;;;88.0;;
22673;SDS011;11504;43.334;21.918;2022-11-15T19:28:21;92.0;;;88.0;;
22673;SDS011;11504;43.334;21.918;2022-11-15T19:32:58;101.0;;;96.0;;
22673;SDS011;11504;43.334;21.918;2022-11-15T19:37:35;101.0;;;96.0;;
22673;SDS011;11504;43.334;21.918;2022-11-15T19:42:12;100.0;;;96.0;;
22673;SDS011;11504;43.334;21.918;2022-11-15T19:46:48;100.0;;;96.0;;
22673;SDS011;11504;43.334;21.918;2022-11-15T19:51:26;100.0;;;96.0;;
22673;SDS011;11504;43.334;21.918;2022-11-15T19:56:06;100.0;;;96.0;;
22673;SDS011;11504;43.334;21.918;2022-11-15T20:00:58;90.0;;;86.0;;
22673;SDS011;11504;43.334;21.918;2022-11-15T20:05:42;90.0;;;86.0;;
22673;SDS011;11504;43.334;21.918;2022-11-15T20:10:19;79.0;;;75.0;;
22673;SDS011;11504;43.334;21.918;2022-11-15T20:14:55;79.0;;;75.0;;
22673;SDS011;11504;43.334;21.918;2022-11-15T20:19:32;80.0;;;76.0;;
22673;SDS011;11504;43.334;21.918;2022-11-15T20:24:08;80.0;;;76.0;;
22673;SDS011;11504;43.334;21.918;2022-11-15T20:28:46;80.0;;;76.0;;
22673;SDS011;11504;43.334;21.918;2022-11-15T20:33:24;80.0;;;76.0;;
22673;SDS011;11504;43.334;21.918;2022-11-15T20:38:02;80.0;;;76.0;;
22673;SDS011;11504;43.334;21.918;2022-11-15T20:42:41;109.0;;;104.0;;
22673;SDS011;11504;43.334;21.918;2022-11-15T20:47:18;109.0;;;104.0;;
22673;SDS011;11504;43.334;21.918;2022-11-15T20:51:55;138.0;;;131.0;;
22673;SDS011;11504;43.334;21.918;2022-11-15T20:56:32;138.0;;;131.0;;
22673;SDS011;11504;43.334;21.918;2022-11-15T21:01:09;142.0;;;134.0;;
22673;SDS011;11504;43.334;21.918;2022-11-15T21:05:54;142.0;;;134.0;;
22673;SDS011;11504;43.334;21.918;2022-11-15T21:10:32;145.0;;;138.0;;
22673;SDS011;11504;43.334;21.918;2022-11-15T21:15:10;145.0;;;138.0;;
22673;SDS011;11504;43.334;21.918;2022-11-15T21:19:46;148.0;;;141.0;;
22673;SDS011;11504;43.334;21.918;2022-11-15T21:24:23;148.0;;;141.0;;
22673;SDS011;11504;43.334;21.918;2022-11-15T21:29:00;152.0;;;144.0;;
22673;SDS011;11504;43.334;21.918;2022-11-15T21:33:39;152.0;;;144.0;;
22673;SDS011;11504;43.334;21.918;2022-11-15T21:38:15;152.0;;;144.0;;
22673;SDS011;11504;43.334;21.918;2022-11-15T21:42:52;150.0;;;139.0;;
22673;SDS011;11504;43.334;21.918;2022-11-15T21:47:28;150.0;;;139.0;;
22673;SDS011;11504;43.334;21.918;2022-11-15T21:52:05;147.0;;;134.0;;
22673;SDS011;11504;43.334;21.918;2022-11-15T21:56:41;147.0;;;134.0;;
22673;SDS011;11504;43.334;21.918;2022-11-15T22:01:18;158.0;;;147.0;;
22673;SDS011;11504;43.334;21.918;2022-11-15T22:05:59;158.0;;;147.0;;
22673;SDS011;11504;43.334;21.918;2022-11-15T22:10:37;168.0;;;160.0;;
22673;SDS011;11504;43.334;21.918;2022-11-15T22:15:14;168.0;;;160.0;;
22673;SDS011;11504;43.334;21.918;2022-11-15T22:19:51;156.0;;;148.0;;
22673;SDS011;11504;43.334;21.918;2022-11-15T22:24:28;156.0;;;148.0;;
22673;SDS011;11504;43.334;21.918;2022-11-15T22:29:05;145.0;;;137.0;;
22673;SDS011;11504;43.334;21.918;2022-11-15T22:33:42;145.0;;;137.0;;
22673;SDS011;11504;43.334;21.918;2022-11-15T22:38:19;145.0;;;137.0;;
22673;SDS011;11504;43.334;21.918;2022-11-15T22:43:01;118.0;;;112.0;;
22673;SDS011;11504;43.334;21.918;2022-11-15T22:47:41;118.0;;;112.0;;
22673;SDS011;11504;43.334;21.918;2022-11-15T22:52:17;92.0;;;87.0;;
22673;SDS011;11504;43.334;21.918;2022-11-15T22:56:54;92.0;;;87.0;;
22673;SDS011;11504;43.334;21.918;2022-11-15T23:01:31;82.0;;;76.0;;
22673;SDS011;11504;43.334;21.918;2022-11-15T23:06:08;82.0;;;76.0;;
22673;SDS011;11504;43.334;21.918;2022-11-15T23:10:44;72.0;;;65.0;;
22673;SDS011;11504;43.334;21.918;2022-11-15T23:15:21;72.0;;;65.0;;
22673;SDS011;11504;43.334;21.918;2022-11-15T23:19:57;81.0;;;75.0;;
22673;SDS011;11504;43.334;21.918;2022-11-15T23:24:34;81.0;;;75.0;;
22673;SDS011;11504;43.334;21.918;2022-11-15T23:29:11;90.0;;;85.0;;
22673;SDS011;11504;43.334;21.918;2022-11-15T23:34:00;90.0;;;85.0;;
22673;SDS011;11504;43.334;21.918;2022-11-15T23:38:37;90.0;;;85.0;;
22673;SDS011;11504;43.334;21.918;2022-11-15T23:43:13;87.0;;;82.0;;
22673;SDS011;11504;43.334;21.918;2022-11-15T23:47:50;87.0;;;82.0;;
22673;SDS011;11504;43.334;21.918;2022-11-15T23:52:27;84.0;;;79.0;;
22673;SDS011;11504;43.334;21.918;2022-11-15T23:57:04;84.0;;;79.0;;
